Canyonlands National Park, UT

4:15 AM MDT on July 29, 2016 (GMT -0600)
Moab | | Change Station

Elev 4239 ft 38.55 °N, 109.52 °W | Updated 6 minutes ago

Clear
Clear
65.6 °F
Feels Like 65.6 °F
N
0.0
Wind Variable Wind from East
Gusts 0.0 mph

Today
High -- | Low -- °F
--% Chance of Precip.
Yesterday
High -- | Low -- °F
Precip. -- in
Pressure 29.78 in
Visibility 10.0 miles
Clouds Clear
Dew Point 41 °F
Humidity 41%
Rainfall 0.00 in
Snow Depth Not available.
6:17 AM 8:30 PM
Waning Crescent, 23% visible
METAR KCNY 290953Z AUTO 26003KT 10SM CLR 24/M04 A3000 RMK AO2 SLP082 T02441039
Pressure 29.78 in
Visibility 10.0 miles
Clouds Clear
Dew Point 41 °F
Humidity 41%
Rainfall 0.00 in
Snow Depth Not available.
6:17 AM 8:30 PM
Waning Crescent, 23% visible
METAR KCNY 290953Z AUTO 26003KT 10SM CLR 24/M04 A3000 RMK AO2 SLP082 T02441039

10-Day Weather Forecast

Almanac

Astronomy

Jul. 29, 2016 Rise Set
Actual Time
Civil Twilight
Nautical Twilight
Astronomical Twilight
Moon
Length of Visible Light
Length of Day
Tomorrow will be .
, % of the Moon is Illuminated

Today's Extremes

State Highs State Lows

Community

WunderPhotos

Upload Photos

1,928,310 photos uploaded!

WunderBlog® & News

Nearby

Air Quality

  Air Quality AQ Index Pollutant
Not available.

Snow Depth

Station Depth Elevation

Earthquake Activity

City Distance Mag. Time & Date
Minimum magnitude displayed is 2.5.

Coastal Water Temperatures

Place Temperature

Stations

Nearby Weather Stations

Station Location Temp. Windchill Dew Point Humidity Wind Precip. Elev Updated Type
                   

Watches & Warnings

There are currently no watches in effect.